»·PEaware :: N72FA L52-L52

N72FA :: L52-L52

FLIGHT INFORMATION

Flight Status: Arrived
Operator: Privately registered:
United States
More flights under this callsign
Pilot: Fco Javier A. (25981)
Aircraft: CESSNA 172 SKYHAWK
(C172)
More flights by this aircraft type
Origin: L52 Oceano Co
United States
Destination: L52 Oceano Co
United States
More flights between these airports :: More routes between these airports
Route: PATTERN WORK
File this flight plan on PilotEdge
Remarks: LEARNING ENGLISH SLOWLY PLEASE. NEW PILOT ON PE
Altitude:
(Current/Filed)
1,200ft
Speed:
(Current/Filed)
100kts
Departed: 10-Sep-19 09:37 AM
Arrived: 10-Sep-19 09:53 AM
Distance/Time
Traveled:
1nm/0:16
Distance/Time
To Go:
Arrived

Flight Plot

Page will automatically refresh every two minutes.


Map Options




Map Legend


Flown Route
Filed Route
Departure Airport
Arrival Airport
Navaid (VOR, NDB)
Fix

Horizontal Profiles

Position Reports

Time Latitude Longitude Heading Altitude Ground
Speed
10-Sep-19 09:16 35.103338 -120.624315 32 15ft 0kts
10-Sep-19 09:17 35.103338 -120.624315 32 15ft 0kts
10-Sep-19 09:18 35.103338 -120.624315 32 15ft 0kts
10-Sep-19 09:19 35.103338 -120.624315 32 15ft 0kts
10-Sep-19 09:20 35.103338 -120.624315 32 15ft 0kts
10-Sep-19 09:21 35.103338 -120.624315 32 15ft 0kts
10-Sep-19 09:22 35.103338 -120.624315 32 15ft 0kts
10-Sep-19 09:23 35.103338 -120.624315 32 15ft 0kts
10-Sep-19 09:24 35.103338 -120.624315 32 15ft 0kts
10-Sep-19 09:25 35.103338 -120.624315 32 15ft 0kts
10-Sep-19 09:26 35.103338 -120.624315 32 15ft 0kts
10-Sep-19 09:27 35.103338 -120.624315 32 15ft 0kts
10-Sep-19 09:28 35.103338 -120.624315 32 15ft 0kts
10-Sep-19 09:29 35.103338 -120.624315 32 15ft 0kts
10-Sep-19 09:30 35.103435 -120.624282 342 15ft 6kts
10-Sep-19 09:31 35.102925 -120.623975 138 15ft 5kts
10-Sep-19 09:32 35.101938 -120.624051 120 14ft 4kts
10-Sep-19 09:33 35.101235 -120.622726 123 15ft 8kts
10-Sep-19 09:34 35.099744 -120.619959 122 17ft 7kts
10-Sep-19 09:35 35.099587 -120.619510 62 17ft 0kts
10-Sep-19 09:36 35.100876 -120.621010 300 17ft 53kts
10-Sep-19 09:37 35.112271 -120.642964 253 861ft 84kts
10-Sep-19 09:38 35.091497 -120.655036 170 1279ft 94kts
10-Sep-19 09:39 35.076035 -120.630481 121 1433ft 89kts
10-Sep-19 09:40 35.067260 -120.601563 63 1250ft 98kts
10-Sep-19 09:41 35.089889 -120.597631 294 732ft 89kts
10-Sep-19 09:42 35.102076 -120.623004 301 91ft 85kts
10-Sep-19 09:43 35.107140 -120.648202 217 954ft 92kts
10-Sep-19 09:44 35.084893 -120.641780 118 1596ft 97kts
10-Sep-19 09:45 35.074808 -120.611433 105 1552ft 95kts
10-Sep-19 09:46 35.092170 -120.596662 310 1026ft 93kts
10-Sep-19 09:47 35.101795 -120.622723 298 23ft 57kts
10-Sep-19 09:48 35.102294 -120.639227 213 578ft 84kts
10-Sep-19 09:49 35.084870 -120.630972 117 1247ft 91kts
10-Sep-19 09:50 35.078624 -120.603987 54 818ft 84kts
10-Sep-19 09:51 35.093327 -120.606738 301 354ft 60kts
10-Sep-19 09:52 35.101848 -120.622955 302 15ft 38kts
10-Sep-19 09:53 35.103624 -120.624664 160 15ft 5kts
10-Sep-19 09:54 35.103480 -120.624693 218 14ft 0kts
10-Sep-19 09:55 35.103480 -120.624693 218 14ft 0kts
10-Sep-19 09:56 35.103480 -120.624693 218 14ft 0kts
10-Sep-19 09:57 35.103480 -120.624693 218 14ft 0kts
10-Sep-19 09:58 35.103480 -120.624693 218 14ft 0kts
10-Sep-19 09:59 35.103480 -120.624693 218 14ft 0kts
10-Sep-19 10:00 35.103480 -120.624693 218 14ft 0kts
10-Sep-19 10:01 35.103480 -120.624693 218 14ft 0kts
10-Sep-19 10:02 35.103470 -120.624703 220 14ft 1kts
10-Sep-19 10:03 35.103356 -120.625308 219 14ft 6kts
10-Sep-19 10:04 35.100572 -120.621523 125 17ft 14kts
10-Sep-19 10:05 35.099612 -120.619508 30 17ft 0kts
10-Sep-19 10:06 35.100775 -120.620859 301 17ft 51kts
10-Sep-19 10:07 35.101118 -120.640567 159 763ft 99kts

Navigation Log

Ident Type
Flight plan parsing failed, navigation log unavailable